sensor_id;sensor_type;location;lat;lon;timestamp;temperature;humidity
37594;DHT22;23441;50.856;6.076;2024-01-16T00:01:52;0.30;99.90
37594;DHT22;23441;50.856;6.076;2024-01-16T00:04:38;0.40;99.90
37594;DHT22;23441;50.856;6.076;2024-01-16T00:07:25;0.30;99.90
37594;DHT22;23441;50.856;6.076;2024-01-16T00:10:11;0.30;99.90
37594;DHT22;23441;50.856;6.076;2024-01-16T00:12:57;0.20;99.90
37594;DHT22;23441;50.856;6.076;2024-01-16T00:15:43;0.20;99.90
37594;DHT22;23441;50.856;6.076;2024-01-16T00:18:29;0.20;99.90
37594;DHT22;23441;50.856;6.076;2024-01-16T00:21:15;0.20;99.90
37594;DHT22;23441;50.856;6.076;2024-01-16T00:24:01;0.20;99.90
37594;DHT22;23441;50.856;6.076;2024-01-16T00:26:47;0.20;99.90
37594;DHT22;23441;50.856;6.076;2024-01-16T00:29:36;0.20;99.90
37594;DHT22;23441;50.856;6.076;2024-01-16T00:32:23;0.20;99.90
37594;DHT22;23441;50.856;6.076;2024-01-16T00:35:09;0.30;99.90
37594;DHT22;23441;50.856;6.076;2024-01-16T00:37:55;0.30;99.90
37594;DHT22;23441;50.856;6.076;2024-01-16T00:40:41;0.30;99.90
37594;DHT22;23441;50.856;6.076;2024-01-16T00:43:26;0.20;99.90
37594;DHT22;23441;50.856;6.076;2024-01-16T00:46:12;0.20;99.90
37594;DHT22;23441;50.856;6.076;2024-01-16T00:48:58;0.20;99.90
37594;DHT22;23441;50.856;6.076;2024-01-16T00:51:44;0.20;99.90
37594;DHT22;23441;50.856;6.076;2024-01-16T00:54:30;0.20;99.90
37594;DHT22;23441;50.856;6.076;2024-01-16T00:57:16;0.10;99.90
37594;DHT22;23441;50.856;6.076;2024-01-16T01:00:05;0.10;99.90
37594;DHT22;23441;50.856;6.076;2024-01-16T01:02:51;0.10;99.90
37594;DHT22;23441;50.856;6.076;2024-01-16T01:05:37;0.10;99.90
37594;DHT22;23441;50.856;6.076;2024-01-16T01:08:23;0.10;99.90
37594;DHT22;23441;50.856;6.076;2024-01-16T01:11:09;0.10;99.90
37594;DHT22;23441;50.856;6.076;2024-01-16T01:13:55;0.00;99.90
37594;DHT22;23441;50.856;6.076;2024-01-16T01:16:41;0.10;99.90
37594;DHT22;23441;50.856;6.076;2024-01-16T01:19:27;0.10;99.90
37594;DHT22;23441;50.856;6.076;2024-01-16T01:22:13;0.10;99.90
37594;DHT22;23441;50.856;6.076;2024-01-16T01:24:59;0.10;99.90
37594;DHT22;23441;50.856;6.076;2024-01-16T01:27:45;0.10;99.90
37594;DHT22;23441;50.856;6.076;2024-01-16T01:30:32;0.20;99.90
37594;DHT22;23441;50.856;6.076;2024-01-16T01:33:18;0.10;99.90
37594;DHT22;23441;50.856;6.076;2024-01-16T01:36:04;0.20;99.90
37594;DHT22;23441;50.856;6.076;2024-01-16T01:38:50;0.20;99.90
37594;DHT22;23441;50.856;6.076;2024-01-16T01:41:36;0.20;99.90
37594;DHT22;23441;50.856;6.076;2024-01-16T01:44:22;0.20;99.90
37594;DHT22;23441;50.856;6.076;2024-01-16T01:47:10;0.30;99.90
37594;DHT22;23441;50.856;6.076;2024-01-16T01:49:56;0.30;99.90
37594;DHT22;23441;50.856;6.076;2024-01-16T01:52:43;0.30;99.90
37594;DHT22;23441;50.856;6.076;2024-01-16T01:55:29;0.30;99.90
37594;DHT22;23441;50.856;6.076;2024-01-16T01:58:15;0.30;99.90
37594;DHT22;23441;50.856;6.076;2024-01-16T02:01:02;0.30;99.90
37594;DHT22;23441;50.856;6.076;2024-01-16T02:03:50;0.30;99.90
37594;DHT22;23441;50.856;6.076;2024-01-16T02:06:37;0.30;99.90
37594;DHT22;23441;50.856;6.076;2024-01-16T02:09:23;0.30;99.90
37594;DHT22;23441;50.856;6.076;2024-01-16T02:12:09;0.40;99.90
37594;DHT22;23441;50.856;6.076;2024-01-16T02:14:55;0.30;99.90
37594;DHT22;23441;50.856;6.076;2024-01-16T02:17:40;0.30;99.90
37594;DHT22;23441;50.856;6.076;2024-01-16T02:20:27;0.40;99.90
37594;DHT22;23441;50.856;6.076;2024-01-16T02:23:14;0.40;99.90
37594;DHT22;23441;50.856;6.076;2024-01-16T02:26:01;0.40;99.90
37594;DHT22;23441;50.856;6.076;2024-01-16T02:28:47;0.30;99.90
37594;DHT22;23441;50.856;6.076;2024-01-16T02:31:33;0.30;99.90
37594;DHT22;23441;50.856;6.076;2024-01-16T02:34:19;0.30;99.90
37594;DHT22;23441;50.856;6.076;2024-01-16T02:37:05;0.30;99.90
37594;DHT22;23441;50.856;6.076;2024-01-16T02:39:51;0.30;99.90
37594;DHT22;23441;50.856;6.076;2024-01-16T02:42:37;0.30;99.90
37594;DHT22;23441;50.856;6.076;2024-01-16T02:45:23;0.30;99.90
37594;DHT22;23441;50.856;6.076;2024-01-16T02:48:09;0.20;99.90
37594;DHT22;23441;50.856;6.076;2024-01-16T02:50:55;0.10;99.90
37594;DHT22;23441;50.856;6.076;2024-01-16T02:53:41;0.00;99.90
37594;DHT22;23441;50.856;6.076;2024-01-16T02:56:27;0.00;99.90
37594;DHT22;23441;50.856;6.076;2024-01-16T02:59:13;0.00;99.90
37594;DHT22;23441;50.856;6.076;2024-01-16T03:01:59;0.00;99.90
37594;DHT22;23441;50.856;6.076;2024-01-16T03:04:45;0.00;99.90
37594;DHT22;23441;50.856;6.076;2024-01-16T03:07:31;-0.10;99.90
37594;DHT22;23441;50.856;6.076;2024-01-16T03:10:17;-0.10;99.90
37594;DHT22;23441;50.856;6.076;2024-01-16T03:13:03;-0.10;99.90
37594;DHT22;23441;50.856;6.076;2024-01-16T03:15:49;0.00;99.90
37594;DHT22;23441;50.856;6.076;2024-01-16T03:18:34;0.00;99.90
37594;DHT22;23441;50.856;6.076;2024-01-16T03:21:20;0.00;99.90
37594;DHT22;23441;50.856;6.076;2024-01-16T03:24:06;-0.10;99.90
37594;DHT22;23441;50.856;6.076;2024-01-16T03:26:52;0.00;99.90
37594;DHT22;23441;50.856;6.076;2024-01-16T03:29:39;0.00;99.90
37594;DHT22;23441;50.856;6.076;2024-01-16T03:32:25;0.00;99.90
37594;DHT22;23441;50.856;6.076;2024-01-16T03:35:11;0.00;99.90
37594;DHT22;23441;50.856;6.076;2024-01-16T03:37:57;0.00;99.90
37594;DHT22;23441;50.856;6.076;2024-01-16T03:40:43;0.00;99.90
37594;DHT22;23441;50.856;6.076;2024-01-16T03:43:29;0.00;99.90
37594;DHT22;23441;50.856;6.076;2024-01-16T03:46:15;0.00;99.90
37594;DHT22;23441;50.856;6.076;2024-01-16T03:49:01;-0.10;99.90
37594;DHT22;23441;50.856;6.076;2024-01-16T03:51:48;-0.10;99.90
37594;DHT22;23441;50.856;6.076;2024-01-16T03:54:33;-0.10;99.90
37594;DHT22;23441;50.856;6.076;2024-01-16T03:57:19;-0.10;99.90
37594;DHT22;23441;50.856;6.076;2024-01-16T04:00:06;-0.10;99.90
37594;DHT22;23441;50.856;6.076;2024-01-16T04:02:52;-0.10;99.90
37594;DHT22;23441;50.856;6.076;2024-01-16T04:05:38;-0.10;99.90
37594;DHT22;23441;50.856;6.076;2024-01-16T04:08:24;0.00;99.90
37594;DHT22;23441;50.856;6.076;2024-01-16T04:11:13;0.00;99.90
37594;DHT22;23441;50.856;6.076;2024-01-16T04:13:59;-0.10;99.90
37594;DHT22;23441;50.856;6.076;2024-01-16T04:16:45;-0.10;99.90
37594;DHT22;23441;50.856;6.076;2024-01-16T04:19:31;-0.10;99.90
37594;DHT22;23441;50.856;6.076;2024-01-16T04:22:19;-0.10;99.90
37594;DHT22;23441;50.856;6.076;2024-01-16T04:25:05;-0.10;99.90
37594;DHT22;23441;50.856;6.076;2024-01-16T04:27:51;-0.20;99.90
37594;DHT22;23441;50.856;6.076;2024-01-16T04:30:37;-0.10;99.90
37594;DHT22;23441;50.856;6.076;2024-01-16T04:33:23;-0.10;99.90
37594;DHT22;23441;50.856;6.076;2024-01-16T04:36:09;-0.20;99.90
37594;DHT22;23441;50.856;6.076;2024-01-16T04:38:55;-0.20;99.90
37594;DHT22;23441;50.856;6.076;2024-01-16T04:41:42;-0.10;99.90
37594;DHT22;23441;50.856;6.076;2024-01-16T04:44:28;-0.20;99.90
37594;DHT22;23441;50.856;6.076;2024-01-16T04:47:14;-0.20;99.90
37594;DHT22;23441;50.856;6.076;2024-01-16T04:49:59;-0.10;99.90
37594;DHT22;23441;50.856;6.076;2024-01-16T04:52:45;-0.10;99.90
37594;DHT22;23441;50.856;6.076;2024-01-16T04:55:31;-0.10;99.90
37594;DHT22;23441;50.856;6.076;2024-01-16T04:58:17;-0.10;99.90
37594;DHT22;23441;50.856;6.076;2024-01-16T05:01:04;-0.10;99.90
37594;DHT22;23441;50.856;6.076;2024-01-16T05:03:50;-0.10;99.90
37594;DHT22;23441;50.856;6.076;2024-01-16T05:06:36;-0.10;99.90
37594;DHT22;23441;50.856;6.076;2024-01-16T05:09:22;-0.10;99.90
37594;DHT22;23441;50.856;6.076;2024-01-16T05:12:08;0.00;99.90
37594;DHT22;23441;50.856;6.076;2024-01-16T05:14:54;-0.10;99.90
37594;DHT22;23441;50.856;6.076;2024-01-16T05:17:39;-0.10;99.90
37594;DHT22;23441;50.856;6.076;2024-01-16T05:20:26;0.00;99.90
37594;DHT22;23441;50.856;6.076;2024-01-16T05:23:12;-0.10;99.90
37594;DHT22;23441;50.856;6.076;2024-01-16T05:25:58;0.00;99.90
37594;DHT22;23441;50.856;6.076;2024-01-16T05:28:44;0.00;99.90
37594;DHT22;23441;50.856;6.076;2024-01-16T05:31:30;0.00;99.90
37594;DHT22;23441;50.856;6.076;2024-01-16T05:34:16;0.00;99.90
37594;DHT22;23441;50.856;6.076;2024-01-16T05:37:02;0.00;99.90
37594;DHT22;23441;50.856;6.076;2024-01-16T05:39:48;0.00;99.90
37594;DHT22;23441;50.856;6.076;2024-01-16T05:42:34;-0.10;99.90
37594;DHT22;23441;50.856;6.076;2024-01-16T05:45:21;-0.10;99.90
37594;DHT22;23441;50.856;6.076;2024-01-16T05:48:07;-0.10;99.90
37594;DHT22;23441;50.856;6.076;2024-01-16T05:50:54;-0.10;99.90
37594;DHT22;23441;50.856;6.076;2024-01-16T05:53:40;-0.10;99.90
37594;DHT22;23441;50.856;6.076;2024-01-16T05:56:26;-0.20;99.90
37594;DHT22;23441;50.856;6.076;2024-01-16T05:59:12;-0.20;99.90
37594;DHT22;23441;50.856;6.076;2024-01-16T06:01:58;-0.20;99.90
37594;DHT22;23441;50.856;6.076;2024-01-16T06:04:43;-0.20;99.90
37594;DHT22;23441;50.856;6.076;2024-01-16T06:07:29;-0.30;99.90
37594;DHT22;23441;50.856;6.076;2024-01-16T06:10:15;-0.30;99.90
37594;DHT22;23441;50.856;6.076;2024-01-16T06:13:01;-0.30;99.90
37594;DHT22;23441;50.856;6.076;2024-01-16T06:15:47;-0.40;99.90
37594;DHT22;23441;50.856;6.076;2024-01-16T06:18:34;-0.50;99.90
37594;DHT22;23441;50.856;6.076;2024-01-16T06:21:20;-0.50;99.90
37594;DHT22;23441;50.856;6.076;2024-01-16T06:24:06;-0.70;99.90
37594;DHT22;23441;50.856;6.076;2024-01-16T06:26:53;-0.90;99.90
37594;DHT22;23441;50.856;6.076;2024-01-16T06:29:39;-1.00;99.90
37594;DHT22;23441;50.856;6.076;2024-01-16T06:32:24;-1.30;99.90
37594;DHT22;23441;50.856;6.076;2024-01-16T06:35:13;-1.40;99.90
37594;DHT22;23441;50.856;6.076;2024-01-16T06:37:59;-1.50;99.90
37594;DHT22;23441;50.856;6.076;2024-01-16T06:40:45;-1.50;99.90
37594;DHT22;23441;50.856;6.076;2024-01-16T06:43:31;-1.60;99.90
37594;DHT22;23441;50.856;6.076;2024-01-16T06:46:17;-1.70;99.90
37594;DHT22;23441;50.856;6.076;2024-01-16T06:49:03;-1.80;99.90
37594;DHT22;23441;50.856;6.076;2024-01-16T06:51:49;-1.80;99.90
37594;DHT22;23441;50.856;6.076;2024-01-16T06:54:35;-1.90;99.90
37594;DHT22;23441;50.856;6.076;2024-01-16T06:57:21;-1.90;99.90
37594;DHT22;23441;50.856;6.076;2024-01-16T07:00:07;-2.00;99.90
37594;DHT22;23441;50.856;6.076;2024-01-16T07:02:53;-2.00;99.90
37594;DHT22;23441;50.856;6.076;2024-01-16T07:05:42;-2.00;99.90
37594;DHT22;23441;50.856;6.076;2024-01-16T07:08:29;-2.10;99.90
37594;DHT22;23441;50.856;6.076;2024-01-16T07:11:15;-2.10;99.90
37594;DHT22;23441;50.856;6.076;2024-01-16T07:14:00;-2.00;99.90
37594;DHT22;23441;50.856;6.076;2024-01-16T07:16:46;-2.10;99.90
37594;DHT22;23441;50.856;6.076;2024-01-16T07:19:32;-2.00;99.90
37594;DHT22;23441;50.856;6.076;2024-01-16T07:22:18;-2.00;99.90
37594;DHT22;23441;50.856;6.076;2024-01-16T07:25:05;-2.00;99.90
37594;DHT22;23441;50.856;6.076;2024-01-16T07:27:51;-1.90;99.90
37594;DHT22;23441;50.856;6.076;2024-01-16T07:30:37;-2.00;99.90
37594;DHT22;23441;50.856;6.076;2024-01-16T07:33:23;-2.00;99.90
37594;DHT22;23441;50.856;6.076;2024-01-16T07:36:09;-2.00;99.90
37594;DHT22;23441;50.856;6.076;2024-01-16T07:38:58;-2.10;99.90
37594;DHT22;23441;50.856;6.076;2024-01-16T07:41:44;-2.00;99.90
37594;DHT22;23441;50.856;6.076;2024-01-16T07:44:30;-1.90;99.90
37594;DHT22;23441;50.856;6.076;2024-01-16T07:47:15;-1.90;99.90
37594;DHT22;23441;50.856;6.076;2024-01-16T07:50:01;-1.90;99.90
37594;DHT22;23441;50.856;6.076;2024-01-16T07:52:48;-1.90;99.90
37594;DHT22;23441;50.856;6.076;2024-01-16T07:55:34;-2.00;99.90
37594;DHT22;23441;50.856;6.076;2024-01-16T07:58:20;-1.90;99.90
37594;DHT22;23441;50.856;6.076;2024-01-16T08:01:06;-1.90;99.90
37594;DHT22;23441;50.856;6.076;2024-01-16T08:03:52;-1.80;99.90
37594;DHT22;23441;50.856;6.076;2024-01-16T08:06:38;-1.90;99.90
37594;DHT22;23441;50.856;6.076;2024-01-16T08:09:24;-1.90;99.90
37594;DHT22;23441;50.856;6.076;2024-01-16T08:12:10;-1.90;99.90
37594;DHT22;23441;50.856;6.076;2024-01-16T08:14:56;-1.80;99.90
37594;DHT22;23441;50.856;6.076;2024-01-16T08:17:42;-1.80;99.90
37594;DHT22;23441;50.856;6.076;2024-01-16T08:20:28;-1.90;99.90
37594;DHT22;23441;50.856;6.076;2024-01-16T08:23:14;-1.80;99.90
37594;DHT22;23441;50.856;6.076;2024-01-16T08:26:00;-1.80;99.90
37594;DHT22;23441;50.856;6.076;2024-01-16T08:28:46;-1.80;99.90
37594;DHT22;23441;50.856;6.076;2024-01-16T08:31:32;-1.80;99.90
37594;DHT22;23441;50.856;6.076;2024-01-16T08:34:18;-1.70;99.90
37594;DHT22;23441;50.856;6.076;2024-01-16T08:37:04;-1.70;99.90
37594;DHT22;23441;50.856;6.076;2024-01-16T08:39:50;-1.60;99.90
37594;DHT22;23441;50.856;6.076;2024-01-16T08:42:36;-1.50;99.90
37594;DHT22;23441;50.856;6.076;2024-01-16T08:45:23;-1.30;99.90
37594;DHT22;23441;50.856;6.076;2024-01-16T08:48:09;-1.10;99.90
37594;DHT22;23441;50.856;6.076;2024-01-16T08:50:55;-1.00;99.90
37594;DHT22;23441;50.856;6.076;2024-01-16T08:53:41;-0.90;99.90
37594;DHT22;23441;50.856;6.076;2024-01-16T08:56:27;-0.90;99.90
37594;DHT22;23441;50.856;6.076;2024-01-16T08:59:13;-0.80;99.90
37594;DHT22;23441;50.856;6.076;2024-01-16T09:01:59;-0.80;99.90
37594;DHT22;23441;50.856;6.076;2024-01-16T09:04:45;-0.70;99.90
37594;DHT22;23441;50.856;6.076;2024-01-16T09:07:33;-0.60;99.90
37594;DHT22;23441;50.856;6.076;2024-01-16T09:10:19;-0.50;99.90
37594;DHT22;23441;50.856;6.076;2024-01-16T09:13:05;-0.40;99.90
37594;DHT22;23441;50.856;6.076;2024-01-16T09:15:51;-0.30;99.90
37594;DHT22;23441;50.856;6.076;2024-01-16T09:18:37;-0.30;99.90
37594;DHT22;23441;50.856;6.076;2024-01-16T09:21:23;-0.20;99.90
37594;DHT22;23441;50.856;6.076;2024-01-16T09:24:09;-0.10;99.90
37594;DHT22;23441;50.856;6.076;2024-01-16T09:26:55;0.00;99.90
37594;DHT22;23441;50.856;6.076;2024-01-16T09:29:41;0.00;99.90
37594;DHT22;23441;50.856;6.076;2024-01-16T09:32:27;0.00;99.90
37594;DHT22;23441;50.856;6.076;2024-01-16T09:35:13;0.20;99.90
37594;DHT22;23441;50.856;6.076;2024-01-16T09:37:59;0.30;99.90
37594;DHT22;23441;50.856;6.076;2024-01-16T09:40:46;0.40;99.90
37594;DHT22;23441;50.856;6.076;2024-01-16T09:43:33;0.40;99.90
37594;DHT22;23441;50.856;6.076;2024-01-16T09:46:22;0.50;99.90
37594;DHT22;23441;50.856;6.076;2024-01-16T09:49:10;0.50;99.90
37594;DHT22;23441;50.856;6.076;2024-01-16T09:51:57;0.30;99.90
37594;DHT22;23441;50.856;6.076;2024-01-16T09:54:47;0.30;99.90
37594;DHT22;23441;50.856;6.076;2024-01-16T09:57:35;0.30;99.90
37594;DHT22;23441;50.856;6.076;2024-01-16T10:00:26;0.40;99.90
37594;DHT22;23441;50.856;6.076;2024-01-16T10:03:13;0.30;99.90
37594;DHT22;23441;50.856;6.076;2024-01-16T10:06:04;0.40;99.90
37594;DHT22;23441;50.856;6.076;2024-01-16T10:08:51;0.40;99.90
37594;DHT22;23441;50.856;6.076;2024-01-16T10:11:37;0.60;99.90
37594;DHT22;23441;50.856;6.076;2024-01-16T10:14:23;0.80;99.90
37594;DHT22;23441;50.856;6.076;2024-01-16T10:17:09;1.00;99.90
37594;DHT22;23441;50.856;6.076;2024-01-16T10:20:00;0.80;99.90
37594;DHT22;23441;50.856;6.076;2024-01-16T10:22:53;0.80;99.90
37594;DHT22;23441;50.856;6.076;2024-01-16T10:25:39;0.70;99.90
37594;DHT22;23441;50.856;6.076;2024-01-16T10:28:25;0.80;99.90
37594;DHT22;23441;50.856;6.076;2024-01-16T10:31:12;0.80;99.90
37594;DHT22;23441;50.856;6.076;2024-01-16T10:34:01;0.80;99.90
37594;DHT22;23441;50.856;6.076;2024-01-16T10:36:58;0.80;99.90
37594;DHT22;23441;50.856;6.076;2024-01-16T10:39:50;0.60;99.90
37594;DHT22;23441;50.856;6.076;2024-01-16T10:42:36;0.50;99.90
37594;DHT22;23441;50.856;6.076;2024-01-16T10:45:23;0.60;99.90
37594;DHT22;23441;50.856;6.076;2024-01-16T10:48:09;0.50;99.90
37594;DHT22;23441;50.856;6.076;2024-01-16T10:50:55;0.40;99.90
37594;DHT22;23441;50.856;6.076;2024-01-16T10:53:42;0.50;99.90
37594;DHT22;23441;50.856;6.076;2024-01-16T10:56:29;0.30;99.90
37594;DHT22;23441;50.856;6.076;2024-01-16T10:59:24;0.30;99.90
37594;DHT22;23441;50.856;6.076;2024-01-16T11:02:13;0.40;99.90
37594;DHT22;23441;50.856;6.076;2024-01-16T11:05:00;0.30;99.90
37594;DHT22;23441;50.856;6.076;2024-01-16T11:07:46;0.30;99.90
37594;DHT22;23441;50.856;6.076;2024-01-16T11:10:34;0.30;99.90
37594;DHT22;23441;50.856;6.076;2024-01-16T11:13:21;0.30;99.90
37594;DHT22;23441;50.856;6.076;2024-01-16T11:16:08;0.30;99.90
37594;DHT22;23441;50.856;6.076;2024-01-16T11:18:55;0.40;99.90
37594;DHT22;23441;50.856;6.076;2024-01-16T11:21:42;0.40;99.90
37594;DHT22;23441;50.856;6.076;2024-01-16T11:24:29;0.40;99.90
37594;DHT22;23441;50.856;6.076;2024-01-16T11:27:22;0.40;99.90
37594;DHT22;23441;50.856;6.076;2024-01-16T11:30:10;0.30;99.90
37594;DHT22;23441;50.856;6.076;2024-01-16T11:32:59;0.40;99.90
37594;DHT22;23441;50.856;6.076;2024-01-16T11:35:45;0.50;99.90
37594;DHT22;23441;50.856;6.076;2024-01-16T11:38:32;0.60;99.90
37594;DHT22;23441;50.856;6.076;2024-01-16T11:41:48;0.40;99.90
37594;DHT22;23441;50.856;6.076;2024-01-16T11:44:46;0.50;99.90
37594;DHT22;23441;50.856;6.076;2024-01-16T11:47:40;0.60;99.90
37594;DHT22;23441;50.856;6.076;2024-01-16T11:50:29;0.80;99.90
37594;DHT22;23441;50.856;6.076;2024-01-16T11:53:33;1.10;99.90
37594;DHT22;23441;50.856;6.076;2024-01-16T11:56:50;1.20;99.90
37594;DHT22;23441;50.856;6.076;2024-01-16T12:05:34;1.40;99.90
37594;DHT22;23441;50.856;6.076;2024-01-16T12:08:21;1.20;99.90
37594;DHT22;23441;50.856;6.076;2024-01-16T12:11:07;1.00;99.90
37594;DHT22;23441;50.856;6.076;2024-01-16T12:14:17;0.80;99.90
37594;DHT22;23441;50.856;6.076;2024-01-16T12:17:10;1.00;99.90
37594;DHT22;23441;50.856;6.076;2024-01-16T12:19:56;1.00;99.90
37594;DHT22;23441;50.856;6.076;2024-01-16T12:22:42;1.00;99.90
37594;DHT22;23441;50.856;6.076;2024-01-16T12:25:30;1.00;99.90
37594;DHT22;23441;50.856;6.076;2024-01-16T12:28:20;1.00;99.90
37594;DHT22;23441;50.856;6.076;2024-01-16T12:31:06;0.90;99.90
37594;DHT22;23441;50.856;6.076;2024-01-16T12:33:54;0.90;99.90
37594;DHT22;23441;50.856;6.076;2024-01-16T12:36:42;0.90;99.90
37594;DHT22;23441;50.856;6.076;2024-01-16T12:39:29;1.00;99.90
37594;DHT22;23441;50.856;6.076;2024-01-16T12:42:15;1.20;99.90
37594;DHT22;23441;50.856;6.076;2024-01-16T12:45:08;1.20;99.90
37594;DHT22;23441;50.856;6.076;2024-01-16T12:47:55;1.50;99.90
37594;DHT22;23441;50.856;6.076;2024-01-16T12:50:43;1.50;99.90
37594;DHT22;23441;50.856;6.076;2024-01-16T12:53:29;1.40;99.90
37594;DHT22;23441;50.856;6.076;2024-01-16T12:56:20;1.50;99.90
37594;DHT22;23441;50.856;6.076;2024-01-16T12:59:12;1.60;99.90
37594;DHT22;23441;50.856;6.076;2024-01-16T13:01:58;1.40;99.90
37594;DHT22;23441;50.856;6.076;2024-01-16T13:04:44;1.50;99.90
37594;DHT22;23441;50.856;6.076;2024-01-16T13:07:30;1.70;99.90
37594;DHT22;23441;50.856;6.076;2024-01-16T13:10:19;1.70;99.90
37594;DHT22;23441;50.856;6.076;2024-01-16T13:13:15;1.80;99.90
37594;DHT22;23441;50.856;6.076;2024-01-16T13:16:02;1.90;99.90
37594;DHT22;23441;50.856;6.076;2024-01-16T13:19:00;1.90;99.90
37594;DHT22;23441;50.856;6.076;2024-01-16T13:21:47;1.90;99.90
37594;DHT22;23441;50.856;6.076;2024-01-16T13:24:33;1.90;99.90
37594;DHT22;23441;50.856;6.076;2024-01-16T13:27:19;1.80;99.90
37594;DHT22;23441;50.856;6.076;2024-01-16T13:30:06;1.70;99.90
37594;DHT22;23441;50.856;6.076;2024-01-16T13:32:52;1.60;99.90
37594;DHT22;23441;50.856;6.076;2024-01-16T13:35:40;1.40;99.90
37594;DHT22;23441;50.856;6.076;2024-01-16T13:38:26;1.40;99.90
37594;DHT22;23441;50.856;6.076;2024-01-16T13:41:12;1.40;99.90
37594;DHT22;23441;50.856;6.076;2024-01-16T13:43:58;1.30;99.90
37594;DHT22;23441;50.856;6.076;2024-01-16T13:46:44;1.20;99.90
37594;DHT22;23441;50.856;6.076;2024-01-16T13:49:30;1.20;99.90
37594;DHT22;23441;50.856;6.076;2024-01-16T13:52:16;1.10;99.90
37594;DHT22;23441;50.856;6.076;2024-01-16T13:55:03;1.00;99.90
37594;DHT22;23441;50.856;6.076;2024-01-16T13:57:50;1.00;99.90
37594;DHT22;23441;50.856;6.076;2024-01-16T14:00:36;1.10;99.90
37594;DHT22;23441;50.856;6.076;2024-01-16T14:03:23;1.00;99.90
37594;DHT22;23441;50.856;6.076;2024-01-16T14:06:09;1.00;99.90
37594;DHT22;23441;50.856;6.076;2024-01-16T14:08:55;1.00;99.90
37594;DHT22;23441;50.856;6.076;2024-01-16T14:11:41;1.00;99.90
37594;DHT22;23441;50.856;6.076;2024-01-16T14:14:28;0.90;99.90
37594;DHT22;23441;50.856;6.076;2024-01-16T14:17:14;0.90;99.90
37594;DHT22;23441;50.856;6.076;2024-01-16T14:20:00;0.90;99.90
37594;DHT22;23441;50.856;6.076;2024-01-16T14:22:45;0.80;99.90
37594;DHT22;23441;50.856;6.076;2024-01-16T14:25:31;0.80;99.90
37594;DHT22;23441;50.856;6.076;2024-01-16T14:28:17;0.70;99.90
37594;DHT22;23441;50.856;6.076;2024-01-16T14:31:04;0.70;99.90
37594;DHT22;23441;50.856;6.076;2024-01-16T14:33:50;0.70;99.90
37594;DHT22;23441;50.856;6.076;2024-01-16T14:36:37;0.70;99.90
37594;DHT22;23441;50.856;6.076;2024-01-16T14:39:23;0.60;99.90
37594;DHT22;23441;50.856;6.076;2024-01-16T14:42:10;0.60;99.90
37594;DHT22;23441;50.856;6.076;2024-01-16T14:44:56;0.50;99.90
37594;DHT22;23441;50.856;6.076;2024-01-16T14:47:42;0.40;99.90
37594;DHT22;23441;50.856;6.076;2024-01-16T14:50:28;0.40;99.90
37594;DHT22;23441;50.856;6.076;2024-01-16T14:53:16;0.30;99.90
37594;DHT22;23441;50.856;6.076;2024-01-16T14:56:02;0.30;99.90
37594;DHT22;23441;50.856;6.076;2024-01-16T14:58:48;0.30;99.90
37594;DHT22;23441;50.856;6.076;2024-01-16T15:01:34;0.20;99.90
37594;DHT22;23441;50.856;6.076;2024-01-16T15:04:20;0.20;99.90
37594;DHT22;23441;50.856;6.076;2024-01-16T15:07:06;0.10;99.90
37594;DHT22;23441;50.856;6.076;2024-01-16T15:09:52;0.20;99.90
37594;DHT22;23441;50.856;6.076;2024-01-16T15:12:39;0.00;99.90
37594;DHT22;23441;50.856;6.076;2024-01-16T15:15:25;0.00;99.90
37594;DHT22;23441;50.856;6.076;2024-01-16T15:18:11;0.00;99.90
37594;DHT22;23441;50.856;6.076;2024-01-16T15:20:59;-0.10;99.90
37594;DHT22;23441;50.856;6.076;2024-01-16T15:23:45;-0.20;99.90
37594;DHT22;23441;50.856;6.076;2024-01-16T15:26:31;-0.30;99.90
37594;DHT22;23441;50.856;6.076;2024-01-16T15:29:17;-0.40;99.90
37594;DHT22;23441;50.856;6.076;2024-01-16T15:32:03;-0.40;99.90
37594;DHT22;23441;50.856;6.076;2024-01-16T15:34:49;-0.50;99.90
37594;DHT22;23441;50.856;6.076;2024-01-16T15:37:35;-0.60;99.90
37594;DHT22;23441;50.856;6.076;2024-01-16T15:40:22;-0.70;99.90
37594;DHT22;23441;50.856;6.076;2024-01-16T15:43:08;-0.80;99.90
37594;DHT22;23441;50.856;6.076;2024-01-16T15:45:54;-0.90;99.90
37594;DHT22;23441;50.856;6.076;2024-01-16T15:48:40;-0.90;99.90
37594;DHT22;23441;50.856;6.076;2024-01-16T15:51:28;-0.90;99.90
37594;DHT22;23441;50.856;6.076;2024-01-16T15:54:14;-0.80;99.90
37594;DHT22;23441;50.856;6.076;2024-01-16T15:57:00;-0.80;99.90
37594;DHT22;23441;50.856;6.076;2024-01-16T15:59:46;-0.90;99.90
37594;DHT22;23441;50.856;6.076;2024-01-16T16:02:32;-0.90;99.90
37594;DHT22;23441;50.856;6.076;2024-01-16T16:05:18;-0.80;99.90
37594;DHT22;23441;50.856;6.076;2024-01-16T16:08:04;-0.90;99.90
37594;DHT22;23441;50.856;6.076;2024-01-16T16:10:50;-0.90;99.90
37594;DHT22;23441;50.856;6.076;2024-01-16T16:13:37;-1.10;99.90
37594;DHT22;23441;50.856;6.076;2024-01-16T16:16:23;-1.10;99.90
37594;DHT22;23441;50.856;6.076;2024-01-16T16:19:09;-1.10;99.90
37594;DHT22;23441;50.856;6.076;2024-01-16T16:21:56;-1.10;99.90
37594;DHT22;23441;50.856;6.076;2024-01-16T16:24:42;-1.20;99.90
37594;DHT22;23441;50.856;6.076;2024-01-16T16:27:29;-1.30;99.90
37594;DHT22;23441;50.856;6.076;2024-01-16T16:30:15;-1.30;99.90
37594;DHT22;23441;50.856;6.076;2024-01-16T16:33:01;-1.30;99.90
37594;DHT22;23441;50.856;6.076;2024-01-16T16:35:48;-1.40;99.90
37594;DHT22;23441;50.856;6.076;2024-01-16T16:38:34;-1.40;99.90
37594;DHT22;23441;50.856;6.076;2024-01-16T16:41:19;-1.50;99.90
37594;DHT22;23441;50.856;6.076;2024-01-16T16:44:06;-1.50;99.90
37594;DHT22;23441;50.856;6.076;2024-01-16T16:46:52;-1.40;99.90
37594;DHT22;23441;50.856;6.076;2024-01-16T16:49:38;-1.50;99.90
37594;DHT22;23441;50.856;6.076;2024-01-16T16:52:24;-1.60;99.90
37594;DHT22;23441;50.856;6.076;2024-01-16T16:55:10;-1.70;99.90
37594;DHT22;23441;50.856;6.076;2024-01-16T16:57:56;-1.80;99.90
37594;DHT22;23441;50.856;6.076;2024-01-16T17:00:42;-1.90;99.90
37594;DHT22;23441;50.856;6.076;2024-01-16T17:03:28;-1.90;99.90
37594;DHT22;23441;50.856;6.076;2024-01-16T17:06:15;-1.90;99.90
37594;DHT22;23441;50.856;6.076;2024-01-16T17:09:01;-2.00;99.90
37594;DHT22;23441;50.856;6.076;2024-01-16T17:11:47;-2.10;99.90
37594;DHT22;23441;50.856;6.076;2024-01-16T17:14:32;-2.10;99.90
37594;DHT22;23441;50.856;6.076;2024-01-16T17:17:18;-2.10;99.90
37594;DHT22;23441;50.856;6.076;2024-01-16T17:20:05;-2.10;99.90
37594;DHT22;23441;50.856;6.076;2024-01-16T17:22:51;-2.10;99.90
37594;DHT22;23441;50.856;6.076;2024-01-16T17:25:37;-2.20;99.90
37594;DHT22;23441;50.856;6.076;2024-01-16T17:28:23;-2.30;99.90
37594;DHT22;23441;50.856;6.076;2024-01-16T17:31:10;-2.20;99.90
37594;DHT22;23441;50.856;6.076;2024-01-16T17:33:56;-2.20;99.90
37594;DHT22;23441;50.856;6.076;2024-01-16T17:36:42;-2.20;99.90
37594;DHT22;23441;50.856;6.076;2024-01-16T17:39:31;-2.30;99.90
37594;DHT22;23441;50.856;6.076;2024-01-16T17:42:17;-2.30;99.90
37594;DHT22;23441;50.856;6.076;2024-01-16T17:45:04;-2.40;99.90
37594;DHT22;23441;50.856;6.076;2024-01-16T17:47:50;-2.40;99.90
37594;DHT22;23441;50.856;6.076;2024-01-16T17:50:36;-2.50;99.90